sensor_id;sensor_type;location;lat;lon;timestamp;P1;durP1;ratioP1;P2;durP2;ratioP2
6205;SDS011;3136;48.788;9.772;2022-08-03T00:01:29;3.30;;;3.00;;
6205;SDS011;3136;48.788;9.772;2022-08-03T00:03:54;4.57;;;3.00;;
6205;SDS011;3136;48.788;9.772;2022-08-03T00:06:20;5.20;;;3.03;;
6205;SDS011;3136;48.788;9.772;2022-08-03T00:08:46;4.27;;;3.00;;
6205;SDS011;3136;48.788;9.772;2022-08-03T00:11:12;3.40;;;3.10;;
6205;SDS011;3136;48.788;9.772;2022-08-03T00:13:37;5.50;;;3.10;;
6205;SDS011;3136;48.788;9.772;2022-08-03T00:16:03;3.70;;;3.20;;
6205;SDS011;3136;48.788;9.772;2022-08-03T00:18:29;4.03;;;3.20;;
6205;SDS011;3136;48.788;9.772;2022-08-03T00:20:55;4.30;;;3.20;;
6205;SDS011;3136;48.788;9.772;2022-08-03T00:23:20;3.93;;;3.10;;
6205;SDS011;3136;48.788;9.772;2022-08-03T00:25:46;4.50;;;3.20;;
6205;SDS011;3136;48.788;9.772;2022-08-03T00:28:12;4.50;;;3.27;;
6205;SDS011;3136;48.788;9.772;2022-08-03T00:30:37;3.93;;;3.30;;
6205;SDS011;3136;48.788;9.772;2022-08-03T00:33:03;3.20;;;2.90;;
6205;SDS011;3136;48.788;9.772;2022-08-03T00:35:29;3.20;;;2.90;;
6205;SDS011;3136;48.788;9.772;2022-08-03T00:37:55;4.57;;;3.63;;
6205;SDS011;3136;48.788;9.772;2022-08-03T00:40:20;4.60;;;3.00;;
6205;SDS011;3136;48.788;9.772;2022-08-03T00:45:15;5.53;;;3.07;;
6205;SDS011;3136;48.788;9.772;2022-08-03T00:47:42;3.47;;;3.17;;
6205;SDS011;3136;48.788;9.772;2022-08-03T00:50:08;4.27;;;3.73;;
6205;SDS011;3136;48.788;9.772;2022-08-03T00:52:34;5.80;;;3.40;;
6205;SDS011;3136;48.788;9.772;2022-08-03T00:55:00;5.67;;;3.23;;
6205;SDS011;3136;48.788;9.772;2022-08-03T00:57:28;5.50;;;3.40;;
6205;SDS011;3136;48.788;9.772;2022-08-03T00:59:54;3.90;;;3.43;;
6205;SDS011;3136;48.788;9.772;2022-08-03T01:02:20;4.00;;;3.60;;
6205;SDS011;3136;48.788;9.772;2022-08-03T01:04:46;5.37;;;3.40;;
6205;SDS011;3136;48.788;9.772;2022-08-03T01:07:16;4.30;;;3.67;;
6205;SDS011;3136;48.788;9.772;2022-08-03T01:15:42;4.80;;;3.30;;
6205;SDS011;3136;48.788;9.772;2022-08-03T01:18:19;3.53;;;3.23;;
6205;SDS011;3136;48.788;9.772;2022-08-03T01:20:50;6.37;;;3.80;;
6205;SDS011;3136;48.788;9.772;2022-08-03T01:26:39;3.50;;;3.20;;
6205;SDS011;3136;48.788;9.772;2022-08-03T01:31:56;3.93;;;3.40;;
6205;SDS011;3136;48.788;9.772;2022-08-03T01:34:28;4.83;;;3.27;;
6205;SDS011;3136;48.788;9.772;2022-08-03T01:36:58;4.57;;;3.60;;
6205;SDS011;3136;48.788;9.772;2022-08-03T01:39:26;7.13;;;3.50;;
6205;SDS011;3136;48.788;9.772;2022-08-03T01:41:56;6.33;;;3.50;;
6205;SDS011;3136;48.788;9.772;2022-08-03T01:44:25;4.93;;;3.43;;
6205;SDS011;3136;48.788;9.772;2022-08-03T01:46:55;3.70;;;3.23;;
6205;SDS011;3136;48.788;9.772;2022-08-03T01:49:23;9.47;;;3.87;;
6205;SDS011;3136;48.788;9.772;2022-08-03T01:51:50;4.83;;;3.33;;
6205;SDS011;3136;48.788;9.772;2022-08-03T01:54:18;10.50;;;4.13;;
6205;SDS011;3136;48.788;9.772;2022-08-03T01:56:44;3.97;;;3.47;;
6205;SDS011;3136;48.788;9.772;2022-08-03T01:59:13;6.27;;;3.47;;
6205;SDS011;3136;48.788;9.772;2022-08-03T02:01:41;4.40;;;3.77;;
6205;SDS011;3136;48.788;9.772;2022-08-03T02:04:08;4.90;;;3.60;;
6205;SDS011;3136;48.788;9.772;2022-08-03T02:06:36;4.00;;;3.70;;
6205;SDS011;3136;48.788;9.772;2022-08-03T02:09:03;3.93;;;3.27;;
6205;SDS011;3136;48.788;9.772;2022-08-03T02:11:30;5.13;;;3.63;;
6205;SDS011;3136;48.788;9.772;2022-08-03T02:13:58;3.90;;;3.50;;
6205;SDS011;3136;48.788;9.772;2022-08-03T02:16:27;4.93;;;3.67;;
6205;SDS011;3136;48.788;9.772;2022-08-03T02:18:54;6.23;;;3.97;;
6205;SDS011;3136;48.788;9.772;2022-08-03T02:21:22;3.83;;;3.40;;
6205;SDS011;3136;48.788;9.772;2022-08-03T02:23:47;4.40;;;3.90;;
6205;SDS011;3136;48.788;9.772;2022-08-03T02:26:14;4.30;;;3.57;;
6205;SDS011;3136;48.788;9.772;2022-08-03T02:28:45;4.50;;;3.47;;
6205;SDS011;3136;48.788;9.772;2022-08-03T02:31:15;5.60;;;3.80;;
6205;SDS011;3136;48.788;9.772;2022-08-03T02:33:48;6.17;;;3.90;;
6205;SDS011;3136;48.788;9.772;2022-08-03T02:36:19;4.87;;;3.80;;
6205;SDS011;3136;48.788;9.772;2022-08-03T02:38:51;4.40;;;3.93;;
6205;SDS011;3136;48.788;9.772;2022-08-03T02:41:20;4.30;;;3.90;;
6205;SDS011;3136;48.788;9.772;2022-08-03T02:43:50;5.90;;;3.67;;
6205;SDS011;3136;48.788;9.772;2022-08-03T02:46:21;4.90;;;3.70;;
6205;SDS011;3136;48.788;9.772;2022-08-03T02:48:51;4.73;;;3.47;;
6205;SDS011;3136;48.788;9.772;2022-08-03T02:51:18;5.37;;;3.70;;
6205;SDS011;3136;48.788;9.772;2022-08-03T02:53:45;4.73;;;3.77;;
6205;SDS011;3136;48.788;9.772;2022-08-03T02:56:12;4.10;;;3.70;;
6205;SDS011;3136;48.788;9.772;2022-08-03T02:58:39;4.47;;;3.87;;
6205;SDS011;3136;48.788;9.772;2022-08-03T03:01:07;4.70;;;4.03;;
6205;SDS011;3136;48.788;9.772;2022-08-03T03:03:34;6.23;;;3.80;;
6205;SDS011;3136;48.788;9.772;2022-08-03T03:06:01;4.07;;;3.67;;
6205;SDS011;3136;48.788;9.772;2022-08-03T03:08:27;4.90;;;4.17;;
6205;SDS011;3136;48.788;9.772;2022-08-03T03:10:54;5.10;;;4.10;;
6205;SDS011;3136;48.788;9.772;2022-08-03T03:13:23;9.90;;;4.00;;
6205;SDS011;3136;48.788;9.772;2022-08-03T03:15:49;4.30;;;3.90;;
6205;SDS011;3136;48.788;9.772;2022-08-03T03:18:16;4.50;;;4.10;;
6205;SDS011;3136;48.788;9.772;2022-08-03T03:20:43;4.23;;;3.27;;
6205;SDS011;3136;48.788;9.772;2022-08-03T03:23:09;4.10;;;3.70;;
6205;SDS011;3136;48.788;9.772;2022-08-03T03:25:35;5.30;;;3.90;;
6205;SDS011;3136;48.788;9.772;2022-08-03T03:28:02;4.50;;;4.10;;
6205;SDS011;3136;48.788;9.772;2022-08-03T03:30:29;4.37;;;3.73;;
6205;SDS011;3136;48.788;9.772;2022-08-03T03:32:55;3.70;;;3.40;;
6205;SDS011;3136;48.788;9.772;2022-08-03T03:35:22;3.90;;;3.60;;
6205;SDS011;3136;48.788;9.772;2022-08-03T03:37:48;5.33;;;3.90;;
6205;SDS011;3136;48.788;9.772;2022-08-03T03:40:14;4.43;;;4.03;;
6205;SDS011;3136;48.788;9.772;2022-08-03T03:42:39;5.07;;;3.53;;
6205;SDS011;3136;48.788;9.772;2022-08-03T03:45:05;7.10;;;3.87;;
6205;SDS011;3136;48.788;9.772;2022-08-03T03:47:35;5.50;;;3.67;;
6205;SDS011;3136;48.788;9.772;2022-08-03T03:50:02;4.30;;;3.90;;
6205;SDS011;3136;48.788;9.772;2022-08-03T03:52:30;6.03;;;4.20;;
6205;SDS011;3136;48.788;9.772;2022-08-03T03:54:56;4.83;;;3.90;;
6205;SDS011;3136;48.788;9.772;2022-08-03T03:57:21;5.17;;;4.10;;
6205;SDS011;3136;48.788;9.772;2022-08-03T03:59:47;4.03;;;3.63;;
6205;SDS011;3136;48.788;9.772;2022-08-03T04:02:13;5.50;;;3.97;;
6205;SDS011;3136;48.788;9.772;2022-08-03T04:04:39;4.83;;;3.90;;
6205;SDS011;3136;48.788;9.772;2022-08-03T04:07:24;4.33;;;3.87;;
6205;SDS011;3136;48.788;9.772;2022-08-03T04:10:10;7.10;;;3.60;;
6205;SDS011;3136;48.788;9.772;2022-08-03T04:12:58;4.90;;;3.70;;
6205;SDS011;3136;48.788;9.772;2022-08-03T04:15:26;5.00;;;4.17;;
6205;SDS011;3136;48.788;9.772;2022-08-03T04:17:52;5.27;;;4.00;;
6205;SDS011;3136;48.788;9.772;2022-08-03T04:20:21;5.73;;;4.20;;
6205;SDS011;3136;48.788;9.772;2022-08-03T04:22:50;4.20;;;3.80;;
6205;SDS011;3136;48.788;9.772;2022-08-03T04:25:18;5.40;;;3.97;;
6205;SDS011;3136;48.788;9.772;2022-08-03T04:27:47;4.40;;;4.00;;
6205;SDS011;3136;48.788;9.772;2022-08-03T04:30:16;5.80;;;3.57;;
6205;SDS011;3136;48.788;9.772;2022-08-03T04:32:43;4.57;;;3.67;;
6205;SDS011;3136;48.788;9.772;2022-08-03T04:35:15;4.40;;;4.00;;
6205;SDS011;3136;48.788;9.772;2022-08-03T04:37:42;4.17;;;3.77;;
6205;SDS011;3136;48.788;9.772;2022-08-03T04:40:32;5.70;;;4.10;;
6205;SDS011;3136;48.788;9.772;2022-08-03T04:42:59;4.90;;;3.63;;
6205;SDS011;3136;48.788;9.772;2022-08-03T04:45:26;4.60;;;3.80;;
6205;SDS011;3136;48.788;9.772;2022-08-03T04:47:53;4.17;;;3.77;;
6205;SDS011;3136;48.788;9.772;2022-08-03T04:50:20;5.87;;;4.00;;
6205;SDS011;3136;48.788;9.772;2022-08-03T04:52:46;3.80;;;3.50;;
6205;SDS011;3136;48.788;9.772;2022-08-03T04:55:23;4.03;;;3.63;;
6205;SDS011;3136;48.788;9.772;2022-08-03T04:57:53;3.83;;;3.53;;
6205;SDS011;3136;48.788;9.772;2022-08-03T05:00:19;3.70;;;3.40;;
6205;SDS011;3136;48.788;9.772;2022-08-03T05:02:45;4.40;;;3.80;;
6205;SDS011;3136;48.788;9.772;2022-08-03T05:05:10;4.60;;;3.90;;
6205;SDS011;3136;48.788;9.772;2022-08-03T05:07:36;4.70;;;3.77;;
6205;SDS011;3136;48.788;9.772;2022-08-03T05:10:06;4.47;;;3.77;;
6205;SDS011;3136;48.788;9.772;2022-08-03T05:12:33;4.60;;;3.60;;
6205;SDS011;3136;48.788;9.772;2022-08-03T05:14:59;3.80;;;3.50;;
6205;SDS011;3136;48.788;9.772;2022-08-03T05:17:25;4.17;;;3.77;;
6205;SDS011;3136;48.788;9.772;2022-08-03T05:19:50;5.07;;;4.00;;
6205;SDS011;3136;48.788;9.772;2022-08-03T05:22:16;9.20;;;3.90;;
6205;SDS011;3136;48.788;9.772;2022-08-03T05:24:41;5.97;;;3.87;;
6205;SDS011;3136;48.788;9.772;2022-08-03T05:27:07;7.30;;;4.20;;
6205;SDS011;3136;48.788;9.772;2022-08-03T05:29:32;3.90;;;3.60;;
6205;SDS011;3136;48.788;9.772;2022-08-03T05:31:58;6.70;;;4.20;;
6205;SDS011;3136;48.788;9.772;2022-08-03T05:34:25;6.67;;;4.00;;
6205;SDS011;3136;48.788;9.772;2022-08-03T05:36:51;6.50;;;3.83;;
6205;SDS011;3136;48.788;9.772;2022-08-03T05:39:17;7.63;;;4.30;;
6205;SDS011;3136;48.788;9.772;2022-08-03T05:41:42;7.03;;;4.33;;
6205;SDS011;3136;48.788;9.772;2022-08-03T05:44:08;6.03;;;4.20;;
6205;SDS011;3136;48.788;9.772;2022-08-03T05:46:34;6.00;;;3.83;;
6205;SDS011;3136;48.788;9.772;2022-08-03T05:48:59;4.80;;;3.70;;
6205;SDS011;3136;48.788;9.772;2022-08-03T05:51:25;4.30;;;3.90;;
6205;SDS011;3136;48.788;9.772;2022-08-03T05:53:51;6.30;;;3.90;;
6205;SDS011;3136;48.788;9.772;2022-08-03T05:56:20;13.87;;;5.53;;
6205;SDS011;3136;48.788;9.772;2022-08-03T05:58:46;12.70;;;4.43;;
6205;SDS011;3136;48.788;9.772;2022-08-03T06:01:12;6.20;;;4.20;;
6205;SDS011;3136;48.788;9.772;2022-08-03T06:03:38;8.33;;;4.30;;
6205;SDS011;3136;48.788;9.772;2022-08-03T06:06:03;8.20;;;3.93;;
6205;SDS011;3136;48.788;9.772;2022-08-03T06:08:29;5.33;;;4.00;;
6205;SDS011;3136;48.788;9.772;2022-08-03T06:10:54;4.20;;;3.27;;
6205;SDS011;3136;48.788;9.772;2022-08-03T06:13:20;5.90;;;3.93;;
6205;SDS011;3136;48.788;9.772;2022-08-03T06:15:45;4.50;;;3.80;;
6205;SDS011;3136;48.788;9.772;2022-08-03T06:18:11;5.40;;;3.40;;
6205;SDS011;3136;48.788;9.772;2022-08-03T06:20:37;5.90;;;3.40;;
6205;SDS011;3136;48.788;9.772;2022-08-03T06:23:02;7.87;;;3.70;;
6205;SDS011;3136;48.788;9.772;2022-08-03T06:25:28;5.07;;;3.43;;
6205;SDS011;3136;48.788;9.772;2022-08-03T06:27:54;9.07;;;3.73;;
6205;SDS011;3136;48.788;9.772;2022-08-03T06:30:20;6.73;;;3.77;;
6205;SDS011;3136;48.788;9.772;2022-08-03T06:32:46;10.20;;;3.67;;
6205;SDS011;3136;48.788;9.772;2022-08-03T06:35:11;5.70;;;3.50;;
6205;SDS011;3136;48.788;9.772;2022-08-03T06:37:44;5.33;;;3.40;;
6205;SDS011;3136;48.788;9.772;2022-08-03T06:40:14;4.57;;;3.40;;
6205;SDS011;3136;48.788;9.772;2022-08-03T06:42:41;3.83;;;2.97;;
6205;SDS011;3136;48.788;9.772;2022-08-03T06:45:08;5.93;;;3.37;;
6205;SDS011;3136;48.788;9.772;2022-08-03T06:47:37;3.60;;;2.97;;
6205;SDS011;3136;48.788;9.772;2022-08-03T06:50:04;4.47;;;3.23;;
6205;SDS011;3136;48.788;9.772;2022-08-03T06:52:30;4.87;;;2.80;;
6205;SDS011;3136;48.788;9.772;2022-08-03T06:54:56;5.00;;;2.70;;
6205;SDS011;3136;48.788;9.772;2022-08-03T06:57:22;4.60;;;2.97;;
6205;SDS011;3136;48.788;9.772;2022-08-03T06:59:48;4.23;;;2.60;;
6205;SDS011;3136;48.788;9.772;2022-08-03T07:02:13;3.60;;;2.80;;
6205;SDS011;3136;48.788;9.772;2022-08-03T07:04:39;4.00;;;3.07;;
6205;SDS011;3136;48.788;9.772;2022-08-03T07:07:04;6.13;;;2.60;;
6205;SDS011;3136;48.788;9.772;2022-08-03T07:09:30;3.20;;;2.67;;
6205;SDS011;3136;48.788;9.772;2022-08-03T07:11:56;6.03;;;2.60;;
6205;SDS011;3136;48.788;9.772;2022-08-03T07:14:22;4.10;;;2.57;;
6205;SDS011;3136;48.788;9.772;2022-08-03T07:16:48;4.10;;;2.80;;
6205;SDS011;3136;48.788;9.772;2022-08-03T07:19:13;3.17;;;2.67;;
6205;SDS011;3136;48.788;9.772;2022-08-03T07:21:39;4.70;;;2.53;;
6205;SDS011;3136;48.788;9.772;2022-08-03T07:24:05;4.43;;;2.43;;
6205;SDS011;3136;48.788;9.772;2022-08-03T07:26:30;3.57;;;2.60;;
6205;SDS011;3136;48.788;9.772;2022-08-03T07:28:56;2.40;;;2.10;;
6205;SDS011;3136;48.788;9.772;2022-08-03T07:31:21;3.97;;;2.30;;
6205;SDS011;3136;48.788;9.772;2022-08-03T07:33:47;4.33;;;2.30;;
6205;SDS011;3136;48.788;9.772;2022-08-03T07:36:13;2.97;;;2.30;;
6205;SDS011;3136;48.788;9.772;2022-08-03T07:38:38;2.40;;;2.03;;
6205;SDS011;3136;48.788;9.772;2022-08-03T07:41:04;2.63;;;2.20;;
6205;SDS011;3136;48.788;9.772;2022-08-03T07:43:29;4.60;;;2.60;;
6205;SDS011;3136;48.788;9.772;2022-08-03T07:45:55;2.53;;;2.03;;
6205;SDS011;3136;48.788;9.772;2022-08-03T07:48:20;2.20;;;2.00;;
6205;SDS011;3136;48.788;9.772;2022-08-03T07:50:46;5.30;;;2.10;;
6205;SDS011;3136;48.788;9.772;2022-08-03T07:53:12;2.60;;;1.93;;
6205;SDS011;3136;48.788;9.772;2022-08-03T07:55:38;3.17;;;2.10;;
6205;SDS011;3136;48.788;9.772;2022-08-03T07:58:05;2.83;;;2.00;;
6205;SDS011;3136;48.788;9.772;2022-08-03T08:00:33;6.87;;;1.80;;
6205;SDS011;3136;48.788;9.772;2022-08-03T08:03:00;2.00;;;1.80;;
6205;SDS011;3136;48.788;9.772;2022-08-03T08:05:25;2.10;;;1.83;;
6205;SDS011;3136;48.788;9.772;2022-08-03T08:07:52;2.43;;;1.70;;
6205;SDS011;3136;48.788;9.772;2022-08-03T08:10:18;4.40;;;1.73;;
6205;SDS011;3136;48.788;9.772;2022-08-03T08:12:43;3.07;;;1.77;;
6205;SDS011;3136;48.788;9.772;2022-08-03T08:15:09;3.17;;;1.90;;
6205;SDS011;3136;48.788;9.772;2022-08-03T08:17:45;3.00;;;1.90;;
6205;SDS011;3136;48.788;9.772;2022-08-03T08:20:11;1.97;;;1.63;;
6205;SDS011;3136;48.788;9.772;2022-08-03T08:22:41;2.37;;;1.73;;
6205;SDS011;3136;48.788;9.772;2022-08-03T08:25:06;2.47;;;1.70;;
6205;SDS011;3136;48.788;9.772;2022-08-03T08:27:32;3.07;;;1.70;;
6205;SDS011;3136;48.788;9.772;2022-08-03T08:29:58;2.43;;;1.60;;
6205;SDS011;3136;48.788;9.772;2022-08-03T08:32:23;1.97;;;1.40;;
6205;SDS011;3136;48.788;9.772;2022-08-03T08:34:49;2.17;;;1.70;;
6205;SDS011;3136;48.788;9.772;2022-08-03T08:37:14;3.07;;;1.60;;
6205;SDS011;3136;48.788;9.772;2022-08-03T08:39:40;1.97;;;1.60;;
6205;SDS011;3136;48.788;9.772;2022-08-03T08:42:05;1.70;;;1.60;;
6205;SDS011;3136;48.788;9.772;2022-08-03T08:44:31;1.87;;;1.50;;
6205;SDS011;3136;48.788;9.772;2022-08-03T08:46:57;2.43;;;1.43;;
6205;SDS011;3136;48.788;9.772;2022-08-03T08:49:27;4.03;;;1.37;;
6205;SDS011;3136;48.788;9.772;2022-08-03T08:51:53;1.77;;;1.30;;
6205;SDS011;3136;48.788;9.772;2022-08-03T08:54:20;2.97;;;1.10;;
6205;SDS011;3136;48.788;9.772;2022-08-03T08:56:47;1.70;;;1.40;;
6205;SDS011;3136;48.788;9.772;2022-08-03T08:59:15;2.83;;;1.17;;
6205;SDS011;3136;48.788;9.772;2022-08-03T09:01:42;1.40;;;1.30;;
6205;SDS011;3136;48.788;9.772;2022-08-03T09:04:07;2.00;;;1.40;;
6205;SDS011;3136;48.788;9.772;2022-08-03T09:06:33;1.90;;;1.13;;
6205;SDS011;3136;48.788;9.772;2022-08-03T09:08:59;1.50;;;1.40;;
6205;SDS011;3136;48.788;9.772;2022-08-03T09:11:25;2.27;;;1.30;;
6205;SDS011;3136;48.788;9.772;2022-08-03T09:13:50;1.63;;;1.10;;
6205;SDS011;3136;48.788;9.772;2022-08-03T09:16:18;1.27;;;1.17;;
6205;SDS011;3136;48.788;9.772;2022-08-03T09:18:46;1.87;;;1.20;;
6205;SDS011;3136;48.788;9.772;2022-08-03T09:23:48;1.37;;;1.27;;
6205;SDS011;3136;48.788;9.772;2022-08-03T09:26:19;1.60;;;1.27;;
6205;SDS011;3136;48.788;9.772;2022-08-03T09:29:00;1.40;;;1.30;;
6205;SDS011;3136;48.788;9.772;2022-08-03T09:34:06;1.40;;;1.30;;
6205;SDS011;3136;48.788;9.772;2022-08-03T09:36:41;3.50;;;1.30;;
6205;SDS011;3136;48.788;9.772;2022-08-03T09:39:08;1.63;;;1.23;;
6205;SDS011;3136;48.788;9.772;2022-08-03T09:41:36;1.47;;;1.13;;
6205;SDS011;3136;48.788;9.772;2022-08-03T09:44:03;4.50;;;1.50;;
6205;SDS011;3136;48.788;9.772;2022-08-03T09:46:28;1.40;;;1.30;;
6205;SDS011;3136;48.788;9.772;2022-08-03T09:49:11;2.90;;;1.30;;
6205;SDS011;3136;48.788;9.772;2022-08-03T09:51:37;1.55;;;1.40;;
6205;SDS011;3136;48.788;9.772;2022-08-03T09:54:04;1.70;;;1.30;;
6205;SDS011;3136;48.788;9.772;2022-08-03T09:56:36;3.90;;;1.20;;
6205;SDS011;3136;48.788;9.772;2022-08-03T09:59:02;2.20;;;1.23;;
6205;SDS011;3136;48.788;9.772;2022-08-03T10:01:32;1.40;;;1.30;;
6205;SDS011;3136;48.788;9.772;2022-08-03T10:03:59;1.40;;;1.30;;
6205;SDS011;3136;48.788;9.772;2022-08-03T10:06:24;2.00;;;1.10;;
6205;SDS011;3136;48.788;9.772;2022-08-03T10:09:03;1.83;;;1.30;;
6205;SDS011;3136;48.788;9.772;2022-08-03T10:11:30;2.10;;;1.50;;
6205;SDS011;3136;48.788;9.772;2022-08-03T10:13:58;1.35;;;1.25;;
6205;SDS011;3136;48.788;9.772;2022-08-03T10:16:30;1.73;;;1.30;;
6205;SDS011;3136;48.788;9.772;2022-08-03T10:18:59;2.00;;;1.30;;
6205;SDS011;3136;48.788;9.772;2022-08-03T10:21:24;1.88;;;1.40;;
6205;SDS011;3136;48.788;9.772;2022-08-03T10:23:56;3.97;;;1.30;;
6205;SDS011;3136;48.788;9.772;2022-08-03T10:26:21;1.88;;;1.20;;
6205;SDS011;3136;48.788;9.772;2022-08-03T10:28:52;1.52;;;1.20;;
6205;SDS011;3136;48.788;9.772;2022-08-03T10:31:19;1.70;;;1.20;;
6205;SDS011;3136;48.788;9.772;2022-08-03T10:33:49;2.30;;;1.35;;
6205;SDS011;3136;48.788;9.772;2022-08-03T10:36:15;2.55;;;1.40;;
6205;SDS011;3136;48.788;9.772;2022-08-03T10:38:43;1.30;;;1.20;;
6205;SDS011;3136;48.788;9.772;2022-08-03T10:41:12;1.42;;;1.25;;
6205;SDS011;3136;48.788;9.772;2022-08-03T10:43:49;1.30;;;1.20;;
6205;SDS011;3136;48.788;9.772;2022-08-03T10:46:20;2.83;;;1.20;;
6205;SDS011;3136;48.788;9.772;2022-08-03T10:48:46;1.55;;;1.13;;
6205;SDS011;3136;48.788;9.772;2022-08-03T10:51:14;1.30;;;1.20;;
6205;SDS011;3136;48.788;9.772;2022-08-03T10:53:41;1.52;;;1.27;;
6205;SDS011;3136;48.788;9.772;2022-08-03T10:59:16;3.42;;;1.20;;
6205;SDS011;3136;48.788;9.772;2022-08-03T11:01:49;3.92;;;1.52;;
6205;SDS011;3136;48.788;9.772;2022-08-03T11:04:20;1.30;;;1.20;;
6205;SDS011;3136;48.788;9.772;2022-08-03T11:06:54;1.27;;;1.20;;
6205;SDS011;3136;48.788;9.772;2022-08-03T11:09:50;1.45;;;1.30;;
6205;SDS011;3136;48.788;9.772;2022-08-03T11:12:27;1.30;;;1.20;;
6205;SDS011;3136;48.788;9.772;2022-08-03T11:14:55;1.55;;;1.40;;
6205;SDS011;3136;48.788;9.772;2022-08-03T11:17:21;4.38;;;1.30;;
6205;SDS011;3136;48.788;9.772;2022-08-03T11:19:48;1.30;;;1.20;;
6205;SDS011;3136;48.788;9.772;2022-08-03T11:22:16;1.75;;;1.30;;
6205;SDS011;3136;48.788;9.772;2022-08-03T11:43:00;2.15;;;1.10;;
6205;SDS011;3136;48.788;9.772;2022-08-03T11:45:27;1.58;;;1.10;;
6205;SDS011;3136;48.788;9.772;2022-08-03T11:47:55;2.25;;;1.40;;
6205;SDS011;3136;48.788;9.772;2022-08-03T11:50:22;2.10;;;1.20;;
6205;SDS011;3136;48.788;9.772;2022-08-03T11:52:49;1.70;;;1.10;;
6205;SDS011;3136;48.788;9.772;2022-08-03T11:55:15;1.70;;;1.25;;
6205;SDS011;3136;48.788;9.772;2022-08-03T11:57:44;2.28;;;1.30;;
6205;SDS011;3136;48.788;9.772;2022-08-03T12:00:30;1.30;;;1.20;;
6205;SDS011;3136;48.788;9.772;2022-08-03T12:02:57;1.75;;;1.65;;
6205;SDS011;3136;48.788;9.772;2022-08-03T12:05:32;1.25;;;1.15;;
6205;SDS011;3136;48.788;9.772;2022-08-03T12:07:59;1.20;;;1.10;;
6205;SDS011;3136;48.788;9.772;2022-08-03T12:10:25;1.00;;;1.00;;
6205;SDS011;3136;48.788;9.772;2022-08-03T12:12:57;1.70;;;1.17;;
6205;SDS011;3136;48.788;9.772;2022-08-03T12:15:28;1.30;;;1.20;;
6205;SDS011;3136;48.788;9.772;2022-08-03T12:17:55;1.25;;;1.00;;
6205;SDS011;3136;48.788;9.772;2022-08-03T12:20:25;1.05;;;1.05;;
6205;SDS011;3136;48.788;9.772;2022-08-03T12:22:52;1.35;;;1.10;;
6205;SDS011;3136;48.788;9.772;2022-08-03T12:25:22;0.90;;;0.90;;
6205;SDS011;3136;48.788;9.772;2022-08-03T12:27:53;1.50;;;1.20;;
6205;SDS011;3136;48.788;9.772;2022-08-03T12:30:31;4.43;;;1.40;;
6205;SDS011;3136;48.788;9.772;2022-08-03T12:32:57;1.40;;;1.30;;
6205;SDS011;3136;48.788;9.772;2022-08-03T12:35:23;1.25;;;1.10;;
6205;SDS011;3136;48.788;9.772;2022-08-03T12:37:49;1.23;;;1.10;;
6205;SDS011;3136;48.788;9.772;2022-08-03T12:40:25;1.30;;;1.20;;
6205;SDS011;3136;48.788;9.772;2022-08-03T12:42:51;1.25;;;1.15;;
6205;SDS011;3136;48.788;9.772;2022-08-03T12:45:18;2.42;;;1.48;;
6205;SDS011;3136;48.788;9.772;2022-08-03T12:47:55;2.55;;;1.30;;
6205;SDS011;3136;48.788;9.772;2022-08-03T12:50:34;1.50;;;1.23;;
6205;SDS011;3136;48.788;9.772;2022-08-03T12:53:01;3.97;;;1.40;;
6205;SDS011;3136;48.788;9.772;2022-08-03T12:55:30;1.85;;;1.20;;
6205;SDS011;3136;48.788;9.772;2022-08-03T12:58:02;3.13;;;1.20;;
6205;SDS011;3136;48.788;9.772;2022-08-03T13:00:31;1.40;;;1.30;;
6205;SDS011;3136;48.788;9.772;2022-08-03T13:03:03;2.95;;;1.25;;
6205;SDS011;3136;48.788;9.772;2022-08-03T13:05:31;2.53;;;1.45;;
6205;SDS011;3136;48.788;9.772;2022-08-03T13:08:19;1.20;;;1.10;;
6205;SDS011;3136;48.788;9.772;2022-08-03T13:10:46;1.38;;;1.20;;
6205;SDS011;3136;48.788;9.772;2022-08-03T13:13:12;2.35;;;1.15;;
6205;SDS011;3136;48.788;9.772;2022-08-03T13:15:37;1.48;;;1.20;;
6205;SDS011;3136;48.788;9.772;2022-08-03T13:18:03;1.20;;;1.10;;
6205;SDS011;3136;48.788;9.772;2022-08-03T13:20:29;2.28;;;1.23;;
6205;SDS011;3136;48.788;9.772;2022-08-03T13:22:56;1.15;;;1.15;;
6205;SDS011;3136;48.788;9.772;2022-08-03T13:25:21;2.70;;;1.40;;
6205;SDS011;3136;48.788;9.772;2022-08-03T13:27:47;1.23;;;1.08;;
6205;SDS011;3136;48.788;9.772;2022-08-03T13:30:13;1.20;;;1.10;;
6205;SDS011;3136;48.788;9.772;2022-08-03T13:32:39;1.00;;;1.00;;
6205;SDS011;3136;48.788;9.772;2022-08-03T13:35:06;1.10;;;1.10;;
6205;SDS011;3136;48.788;9.772;2022-08-03T13:37:32;1.85;;;1.00;;
6205;SDS011;3136;48.788;9.772;2022-08-03T13:39:59;2.05;;;1.20;;
6205;SDS011;3136;48.788;9.772;2022-08-03T13:42:25;2.83;;;1.10;;
6205;SDS011;3136;48.788;9.772;2022-08-03T13:44:54;2.00;;;1.20;;
6205;SDS011;3136;48.788;9.772;2022-08-03T13:47:20;1.65;;;1.20;;
6205;SDS011;3136;48.788;9.772;2022-08-03T13:49:46;2.47;;;1.30;;
6205;SDS011;3136;48.788;9.772;2022-08-03T13:52:11;1.20;;;1.10;;
6205;SDS011;3136;48.788;9.772;2022-08-03T13:54:37;1.42;;;1.30;;
6205;SDS011;3136;48.788;9.772;2022-08-03T13:57:02;2.20;;;1.25;;
6205;SDS011;3136;48.788;9.772;2022-08-03T13:59:28;2.13;;;1.20;;
6205;SDS011;3136;48.788;9.772;2022-08-03T14:01:54;1.30;;;1.20;;
6205;SDS011;3136;48.788;9.772;2022-08-03T14:04:20;3.00;;;1.27;;
6205;SDS011;3136;48.788;9.772;2022-08-03T14:06:45;1.30;;;1.20;;
6205;SDS011;3136;48.788;9.772;2022-08-03T14:09:11;1.85;;;1.20;;
6205;SDS011;3136;48.788;9.772;2022-08-03T14:11:41;1.30;;;1.20;;
6205;SDS011;3136;48.788;9.772;2022-08-03T14:14:07;1.30;;;1.20;;
6205;SDS011;3136;48.788;9.772;2022-08-03T14:16:34;1.00;;;1.00;;
6205;SDS011;3136;48.788;9.772;2022-08-03T14:18:59;1.40;;;1.30;;
6205;SDS011;3136;48.788;9.772;2022-08-03T14:21:25;1.38;;;1.27;;
6205;SDS011;3136;48.788;9.772;2022-08-03T14:23:51;2.55;;;1.38;;
6205;SDS011;3136;48.788;9.772;2022-08-03T14:26:16;1.27;;;1.20;;
6205;SDS011;3136;48.788;9.772;2022-08-03T14:28:44;1.60;;;1.40;;
6205;SDS011;3136;48.788;9.772;2022-08-03T14:31:09;1.27;;;1.17;;
6205;SDS011;3136;48.788;9.772;2022-08-03T14:33:35;4.18;;;1.30;;
6205;SDS011;3136;48.788;9.772;2022-08-03T14:36:01;1.10;;;1.10;;
6205;SDS011;3136;48.788;9.772;2022-08-03T14:38:26;1.30;;;1.20;;
6205;SDS011;3136;48.788;9.772;2022-08-03T14:40:52;1.65;;;1.50;;
6205;SDS011;3136;48.788;9.772;2022-08-03T14:43:18;1.33;;;1.20;;
6205;SDS011;3136;48.788;9.772;2022-08-03T14:45:47;1.13;;;1.10;;
6205;SDS011;3136;48.788;9.772;2022-08-03T14:48:16;1.30;;;1.20;;
6205;SDS011;3136;48.788;9.772;2022-08-03T14:50:42;1.85;;;1.30;;
6205;SDS011;3136;48.788;9.772;2022-08-03T14:53:08;1.42;;;1.33;;
6205;SDS011;3136;48.788;9.772;2022-08-03T14:55:33;1.42;;;1.33;;
6205;SDS011;3136;48.788;9.772;2022-08-03T14:57:59;1.50;;;1.40;;
6205;SDS011;3136;48.788;9.772;2022-08-03T15:00:29;2.95;;;1.60;;
6205;SDS011;3136;48.788;9.772;2022-08-03T15:02:56;1.67;;;1.17;;
6205;SDS011;3136;48.788;9.772;2022-08-03T15:05:21;2.65;;;1.30;;
6205;SDS011;3136;48.788;9.772;2022-08-03T15:07:47;1.50;;;1.40;;
6205;SDS011;3136;48.788;9.772;2022-08-03T15:10:13;1.90;;;1.80;;
6205;SDS011;3136;48.788;9.772;2022-08-03T15:12:38;2.28;;;1.38;;
6205;SDS011;3136;48.788;9.772;2022-08-03T15:15:04;1.20;;;1.10;;
6205;SDS011;3136;48.788;9.772;2022-08-03T15:17:30;2.40;;;1.30;;
6205;SDS011;3136;48.788;9.772;2022-08-03T15:19:55;1.40;;;1.08;;
6205;SDS011;3136;48.788;9.772;2022-08-03T15:22:21;1.92;;;1.15;;
6205;SDS011;3136;48.788;9.772;2022-08-03T15:24:47;2.53;;;1.20;;
6205;SDS011;3136;48.788;9.772;2022-08-03T15:27:12;1.30;;;1.20;;
6205;SDS011;3136;48.788;9.772;2022-08-03T15:29:38;1.52;;;1.27;;
6205;SDS011;3136;48.788;9.772;2022-08-03T15:32:04;1.42;;;1.25;;
6205;SDS011;3136;48.788;9.772;2022-08-03T15:34:29;1.40;;;1.30;;
6205;SDS011;3136;48.788;9.772;2022-08-03T15:36:55;1.20;;;1.10;;
6205;SDS011;3136;48.788;9.772;2022-08-03T15:39:20;1.30;;;1.20;;
6205;SDS011;3136;48.788;9.772;2022-08-03T15:41:46;1.30;;;1.20;;
6205;SDS011;3136;48.788;9.772;2022-08-03T15:44:12;1.30;;;1.15;;
6205;SDS011;3136;48.788;9.772;2022-08-03T15:46:37;2.67;;;1.52;;
6205;SDS011;3136;48.788;9.772;2022-08-03T15:49:03;1.80;;;1.25;;
6205;SDS011;3136;48.788;9.772;2022-08-03T15:51:28;1.63;;;1.40;;
6205;SDS011;3136;48.788;9.772;2022-08-03T15:53:54;1.40;;;1.30;;
6205;SDS011;3136;48.788;9.772;2022-08-03T15:56:21;1.42;;;1.33;;
6205;SDS011;3136;48.788;9.772;2022-08-03T15:58:47;6.30;;;1.30;;